SWR852 EDDH-EDDP
Flight info
| Callsign | SWR852 |
|---|---|
| Flight time | 0h 35m |
| Altitude | 23000 |
| Route | AMLUH2G AMLUH M852 POVEL Z94 KENIG T959 KOJEC KOJEC1V |
| Aircraft | A359/H-SDE2E3GHIJ3J4J5LM1ORWXY/LB1D1 |
Departure
| Time | 2026-04-23 19:55 |
|---|---|
| Airport | Hamburg Helmut Schmidt Airport (EDDH) |
Arrival
| Time | 2026-04-23 20:30 |
|---|---|
| Airport | Leipzig/Halle Airport (EDDP) |
| Time | Latitude | Longitude | Altitude | Speed | Heading |
|---|---|---|---|---|---|
| 2026-04-23 19:07 | 53.63285 | 9.99954 | 49 ft | 0 kts | 143° |
| 2026-04-23 19:44 | 53.63302 | 9.99932 | 49 ft | 4 kts | 144° |
| 2026-04-23 19:45 | 53.63322 | 9.99908 | 49 ft | 4 kts | 150° |
| 2026-04-23 19:45 | 53.63343 | 9.99900 | 49 ft | 4 kts | 210° |
| 2026-04-23 19:45 | 53.63361 | 9.99930 | 49 ft | 4 kts | 231° |
| 2026-04-23 19:45 | 53.63365 | 9.99937 | 49 ft | 0 kts | 229° |
| 2026-04-23 19:50 | 53.63355 | 9.99918 | 49 ft | 6 kts | 229° |
| 2026-04-23 19:50 | 53.63315 | 9.99840 | 50 ft | 7 kts | 229° |
| 2026-04-23 19:50 | 53.63277 | 9.99769 | 53 ft | 8 kts | 217° |
| 2026-04-23 19:50 | 53.63215 | 9.99770 | 51 ft | 10 kts | 157° |
| 2026-04-23 19:51 | 53.63137 | 9.99835 | 53 ft | 15 kts | 151° |
| 2026-04-23 19:51 | 53.63035 | 9.99928 | 50 ft | 17 kts | 155° |
| 2026-04-23 19:51 | 53.62935 | 10.00008 | 49 ft | 8 kts | 153° |
| 2026-04-23 19:51 | 53.62885 | 10.00034 | 55 ft | 5 kts | 177° |
| 2026-04-23 19:52 | 53.62855 | 10.00020 | 53 ft | 8 kts | 205° |
| 2026-04-23 19:52 | 53.62822 | 9.99901 | 49 ft | 12 kts | 250° |
| 2026-04-23 19:52 | 53.62828 | 9.99793 | 47 ft | 9 kts | 311° |
| 2026-04-23 19:52 | 53.62862 | 9.99750 | 49 ft | 1 kts | 329° |
| 2026-04-23 19:54 | 53.62863 | 9.99750 | 49 ft | 1 kts | 329° |
| 2026-04-23 19:54 | 53.63037 | 9.99595 | 49 ft | 67 kts | 333° |
| 2026-04-23 19:54 | 53.63684 | 9.99038 | 48 ft | 140 kts | 333° |
| 2026-04-23 19:54 | 53.64704 | 9.98164 | 386 ft | 171 kts | 332° |
| 2026-04-23 19:55 | 53.65735 | 9.97315 | 1367 ft | 164 kts | 333° |
| 2026-04-23 19:55 | 53.66776 | 9.96510 | 2007 ft | 165 kts | 334° |
| 2026-04-23 19:55 | 53.67843 | 9.95733 | 2566 ft | 168 kts | 334° |
| 2026-04-23 19:55 | 53.68945 | 9.94967 | 3033 ft | 180 kts | 343° |
| 2026-04-23 19:56 | 53.70261 | 9.94762 | 3491 ft | 199 kts | 3° |
| 2026-04-23 19:56 | 53.71532 | 9.95632 | 4326 ft | 202 kts | 33° |
| 2026-04-23 19:56 | 53.72425 | 9.97524 | 5082 ft | 212 kts | 51° |
| 2026-04-23 19:56 | 53.72926 | 9.98975 | 5491 ft | 217 kts | 53° |
| 2026-04-23 19:57 | 53.73622 | 10.01276 | 6166 ft | 224 kts | 61° |
| 2026-04-23 19:57 | 53.73862 | 10.03973 | 6794 ft | 243 kts | 90° |
| 2026-04-23 19:57 | 53.73292 | 10.06791 | 7133 ft | 270 kts | 114° |
| 2026-04-23 19:57 | 53.72322 | 10.09655 | 7451 ft | 290 kts | 117° |
| 2026-04-23 19:58 | 53.71270 | 10.12621 | 7975 ft | 298 kts | 117° |
| 2026-04-23 19:58 | 53.70212 | 10.15656 | 8628 ft | 301 kts | 116° |
| 2026-04-23 19:58 | 53.69071 | 10.18645 | 9320 ft | 307 kts | 126° |
| 2026-04-23 19:58 | 53.67394 | 10.20911 | 10007 ft | 314 kts | 154° |
| 2026-04-23 19:59 | 53.65320 | 10.22125 | 10576 ft | 321 kts | 163° |
| 2026-04-23 19:59 | 53.63128 | 10.23261 | 10856 ft | 337 kts | 162° |
| 2026-04-23 19:59 | 53.60833 | 10.24467 | 11123 ft | 353 kts | 162° |
| 2026-04-23 19:59 | 53.58434 | 10.25702 | 11381 ft | 367 kts | 163° |
| 2026-04-23 20:00 | 53.55945 | 10.26946 | 11676 ft | 378 kts | 163° |
| 2026-04-23 20:00 | 53.53433 | 10.28173 | 12147 ft | 382 kts | 163° |
| 2026-04-23 20:00 | 53.50832 | 10.29423 | 12685 ft | 385 kts | 164° |
| 2026-04-23 20:00 | 53.48281 | 10.30641 | 13190 ft | 388 kts | 164° |
| 2026-04-23 20:01 | 53.45678 | 10.31882 | 13703 ft | 390 kts | 164° |
| 2026-04-23 20:01 | 53.43060 | 10.33130 | 14193 ft | 393 kts | 163° |
| 2026-04-23 20:01 | 53.40424 | 10.34387 | 14646 ft | 395 kts | 164° |
| 2026-04-23 20:01 | 53.37767 | 10.35655 | 15070 ft | 398 kts | 164° |
| 2026-04-23 20:02 | 53.35095 | 10.36930 | 15523 ft | 400 kts | 164° |
| 2026-04-23 20:02 | 53.32406 | 10.38211 | 15985 ft | 402 kts | 164° |
| 2026-04-23 20:02 | 53.29704 | 10.39497 | 16447 ft | 404 kts | 164° |
| 2026-04-23 20:02 | 53.26990 | 10.40785 | 16928 ft | 406 kts | 164° |
| 2026-04-23 20:03 | 53.24268 | 10.42075 | 17407 ft | 408 kts | 164° |
| 2026-04-23 20:03 | 53.21523 | 10.43377 | 17864 ft | 410 kts | 164° |
| 2026-04-23 20:03 | 53.18766 | 10.44684 | 18321 ft | 412 kts | 164° |
| 2026-04-23 20:03 | 53.16002 | 10.45992 | 18730 ft | 415 kts | 164° |
| 2026-04-23 20:04 | 53.13214 | 10.47309 | 19107 ft | 417 kts | 164° |
| 2026-04-23 20:04 | 53.10414 | 10.48630 | 19490 ft | 420 kts | 164° |
| 2026-04-23 20:04 | 53.07594 | 10.49958 | 19882 ft | 422 kts | 164° |
| 2026-04-23 20:04 | 53.04756 | 10.51293 | 20269 ft | 424 kts | 164° |
| 2026-04-23 20:05 | 53.01907 | 10.52631 | 20640 ft | 426 kts | 164° |
| 2026-04-23 20:05 | 52.99085 | 10.53954 | 21004 ft | 429 kts | 164° |
| 2026-04-23 20:05 | 52.96205 | 10.55303 | 21373 ft | 431 kts | 164° |
| 2026-04-23 20:05 | 52.93309 | 10.56658 | 21748 ft | 433 kts | 164° |
| 2026-04-23 20:06 | 52.90403 | 10.58015 | 22116 ft | 435 kts | 164° |
| 2026-04-23 20:06 | 52.87477 | 10.59379 | 22462 ft | 438 kts | 164° |
| 2026-04-23 20:06 | 52.84535 | 10.60749 | 22833 ft | 440 kts | 164° |
| 2026-04-23 20:06 | 52.81583 | 10.62123 | 23154 ft | 442 kts | 164° |
| 2026-04-23 20:07 | 52.78567 | 10.63523 | 23244 ft | 457 kts | 164° |
| 2026-04-23 20:07 | 52.75445 | 10.64969 | 23230 ft | 477 kts | 164° |
| 2026-04-23 20:07 | 52.72232 | 10.66453 | 23226 ft | 479 kts | 164° |
| 2026-04-23 20:07 | 52.69023 | 10.67932 | 23228 ft | 479 kts | 164° |
| 2026-04-23 20:08 | 52.65808 | 10.69412 | 23221 ft | 479 kts | 164° |
| 2026-04-23 20:08 | 52.62596 | 10.70890 | 23225 ft | 479 kts | 164° |
| 2026-04-23 20:08 | 52.59383 | 10.72368 | 23227 ft | 479 kts | 164° |
| 2026-04-23 20:08 | 52.56177 | 10.73840 | 23232 ft | 479 kts | 164° |
| 2026-04-23 20:09 | 52.52962 | 10.75315 | 23238 ft | 479 kts | 164° |
| 2026-04-23 20:09 | 52.49754 | 10.76785 | 23233 ft | 478 kts | 164° |
| 2026-04-23 20:09 | 52.46578 | 10.78237 | 23238 ft | 477 kts | 164° |
| 2026-04-23 20:09 | 52.43376 | 10.79700 | 23234 ft | 477 kts | 164° |
| 2026-04-23 20:10 | 52.40170 | 10.81162 | 23234 ft | 477 kts | 164° |
| 2026-04-23 20:10 | 52.36970 | 10.82619 | 23234 ft | 477 kts | 164° |
| 2026-04-23 20:10 | 52.33776 | 10.84072 | 23233 ft | 477 kts | 164° |
| 2026-04-23 20:10 | 52.30571 | 10.85526 | 23236 ft | 477 kts | 164° |
| 2026-04-23 20:11 | 52.27376 | 10.86975 | 23237 ft | 477 kts | 164° |
| 2026-04-23 20:11 | 52.24176 | 10.88423 | 23235 ft | 476 kts | 164° |
| 2026-04-23 20:11 | 52.21026 | 10.89847 | 23237 ft | 475 kts | 164° |
| 2026-04-23 20:11 | 52.17836 | 10.91286 | 23228 ft | 477 kts | 164° |
| 2026-04-23 20:12 | 52.14624 | 10.92733 | 23230 ft | 478 kts | 164° |
| 2026-04-23 20:12 | 52.11418 | 10.94175 | 23231 ft | 478 kts | 164° |
| 2026-04-23 20:12 | 52.08204 | 10.95618 | 23232 ft | 479 kts | 164° |
| 2026-04-23 20:12 | 52.04982 | 10.97062 | 23233 ft | 479 kts | 164° |
| 2026-04-23 20:13 | 52.01772 | 10.98499 | 23233 ft | 479 kts | 164° |
| 2026-04-23 20:13 | 51.98561 | 10.99934 | 23232 ft | 478 kts | 163° |
| 2026-04-23 20:13 | 51.95397 | 11.01347 | 23229 ft | 477 kts | 163° |
| 2026-04-23 20:13 | 51.92154 | 11.02793 | 23225 ft | 477 kts | 163° |
| 2026-04-23 20:14 | 51.88991 | 11.04216 | 23225 ft | 477 kts | 162° |
| 2026-04-23 20:14 | 51.85893 | 11.06134 | 23233 ft | 476 kts | 154° |
| 2026-04-23 20:14 | 51.82903 | 11.08424 | 23243 ft | 475 kts | 152° |
| 2026-04-23 20:14 | 51.79960 | 11.10846 | 23226 ft | 475 kts | 151° |
| 2026-04-23 20:15 | 51.77020 | 11.13358 | 23219 ft | 475 kts | 150° |
| 2026-04-23 20:15 | 51.74163 | 11.16009 | 23237 ft | 474 kts | 145° |
| 2026-04-23 20:15 | 51.71593 | 11.19314 | 23223 ft | 470 kts | 134° |
| 2026-04-23 20:15 | 51.69555 | 11.23389 | 23229 ft | 465 kts | 118° |
| 2026-04-23 20:16 | 51.68195 | 11.28072 | 22922 ft | 458 kts | 107° |
| 2026-04-23 20:16 | 51.67169 | 11.32919 | 22146 ft | 455 kts | 105° |
| 2026-04-23 20:16 | 51.66216 | 11.37733 | 21606 ft | 448 kts | 104° |
| 2026-04-23 20:16 | 51.65271 | 11.42496 | 21093 ft | 446 kts | 105° |
| 2026-04-23 20:17 | 51.64320 | 11.47244 | 20599 ft | 444 kts | 105° |
| 2026-04-23 20:17 | 51.63369 | 11.51961 | 20106 ft | 441 kts | 105° |
| 2026-04-23 20:17 | 51.62434 | 11.56579 | 19640 ft | 439 kts | 105° |
| 2026-04-23 20:17 | 51.61486 | 11.61236 | 19142 ft | 436 kts | 105° |
| 2026-04-23 20:18 | 51.60543 | 11.65859 | 18600 ft | 433 kts | 104° |
| 2026-04-23 20:18 | 51.59603 | 11.70453 | 17937 ft | 431 kts | 105° |
| 2026-04-23 20:18 | 51.58667 | 11.75014 | 17278 ft | 428 kts | 105° |
| 2026-04-23 20:18 | 51.57736 | 11.79544 | 16647 ft | 425 kts | 105° |
| 2026-04-23 20:19 | 51.56807 | 11.84049 | 16017 ft | 422 kts | 105° |
| 2026-04-23 20:19 | 51.55885 | 11.88512 | 15404 ft | 419 kts | 105° |
| 2026-04-23 20:19 | 51.54969 | 11.92936 | 14808 ft | 416 kts | 105° |
| 2026-04-23 20:19 | 51.54122 | 11.97352 | 14217 ft | 410 kts | 100° |
| 2026-04-23 20:20 | 51.53857 | 12.01744 | 13815 ft | 378 kts | 84° |
| 2026-04-23 20:20 | 51.54001 | 12.05766 | 13603 ft | 344 kts | 82° |
| 2026-04-23 20:20 | 51.54180 | 12.09448 | 13332 ft | 318 kts | 81° |
| 2026-04-23 20:20 | 51.54350 | 12.12866 | 13085 ft | 299 kts | 80° |
| 2026-04-23 20:21 | 51.54515 | 12.16157 | 12627 ft | 292 kts | 80° |
| 2026-04-23 20:21 | 51.54677 | 12.19395 | 12120 ft | 289 kts | 80° |
| 2026-04-23 20:21 | 51.54833 | 12.22601 | 11628 ft | 287 kts | 80° |
| 2026-04-23 20:21 | 51.54989 | 12.25789 | 11140 ft | 286 kts | 80° |
| 2026-04-23 20:22 | 51.55138 | 12.28967 | 10660 ft | 284 kts | 80° |
| 2026-04-23 20:22 | 51.55280 | 12.32071 | 10189 ft | 281 kts | 80° |
| 2026-04-23 20:22 | 51.55423 | 12.35180 | 9678 ft | 278 kts | 80° |
| 2026-04-23 20:22 | 51.55565 | 12.38261 | 9151 ft | 275 kts | 81° |
| 2026-04-23 20:23 | 51.55702 | 12.41319 | 8630 ft | 274 kts | 81° |
| 2026-04-23 20:23 | 51.55839 | 12.44366 | 8124 ft | 272 kts | 81° |
| 2026-04-23 20:23 | 51.55976 | 12.47398 | 7625 ft | 271 kts | 81° |
| 2026-04-23 20:23 | 51.56112 | 12.50408 | 7138 ft | 270 kts | 81° |
| 2026-04-23 20:24 | 51.56243 | 12.53420 | 6653 ft | 269 kts | 82° |
| 2026-04-23 20:24 | 51.56174 | 12.56412 | 6125 ft | 269 kts | 101° |
| 2026-04-23 20:24 | 51.55336 | 12.59006 | 5651 ft | 264 kts | 130° |
| 2026-04-23 20:24 | 51.53855 | 12.60626 | 5223 ft | 255 kts | 161° |
| 2026-04-23 20:25 | 51.52152 | 12.61221 | 4788 ft | 248 kts | 173° |
| 2026-04-23 20:25 | 51.50445 | 12.61554 | 4316 ft | 246 kts | 174° |
| 2026-04-23 20:25 | 51.48761 | 12.61434 | 3834 ft | 242 kts | 199° |
| 2026-04-23 20:25 | 51.47358 | 12.60087 | 3354 ft | 233 kts | 227° |
| 2026-04-23 20:26 | 51.46282 | 12.58181 | 3040 ft | 230 kts | 234° |
| 2026-04-23 20:26 | 51.45277 | 12.56180 | 2969 ft | 229 kts | 239° |
| 2026-04-23 20:26 | 51.44644 | 12.53870 | 2984 ft | 223 kts | 260° |
| 2026-04-23 20:26 | 51.44513 | 12.51435 | 2992 ft | 219 kts | 273° |
| 2026-04-23 20:27 | 51.44451 | 12.48991 | 2988 ft | 220 kts | 267° |
| 2026-04-23 20:27 | 51.44301 | 12.46545 | 2928 ft | 220 kts | 268° |
| 2026-04-23 20:27 | 51.44183 | 12.44114 | 2646 ft | 216 kts | 269° |
| 2026-04-23 20:27 | 51.44075 | 12.41806 | 2340 ft | 202 kts | 269° |
| 2026-04-23 20:28 | 51.43972 | 12.39688 | 2087 ft | 179 kts | 270° |
| 2026-04-23 20:28 | 51.43883 | 12.37811 | 1869 ft | 162 kts | 271° |
| 2026-04-23 20:28 | 51.43804 | 12.36102 | 1631 ft | 145 kts | 271° |
| 2026-04-23 20:28 | 51.43732 | 12.34578 | 1441 ft | 131 kts | 271° |
| 2026-04-23 20:29 | 51.43667 | 12.33173 | 1274 ft | 122 kts | 270° |
| 2026-04-23 20:29 | 51.43607 | 12.31822 | 1102 ft | 122 kts | 269° |
| 2026-04-23 20:29 | 51.43553 | 12.30462 | 984 ft | 123 kts | 268° |
| 2026-04-23 20:29 | 51.43481 | 12.29082 | 813 ft | 124 kts | 266° |
| 2026-04-23 20:30 | 51.43413 | 12.27718 | 617 ft | 122 kts | 266° |
| 2026-04-23 20:30 | 51.43288 | 12.25069 | 456 ft | 103 kts | 264° |
| 2026-04-23 20:30 | 51.43252 | 12.24302 | 448 ft | 36 kts | 266° |
| 2026-04-23 20:31 | 51.43232 | 12.23968 | 447 ft | 18 kts | 259° |
| 2026-04-23 20:31 | 51.43195 | 12.23807 | 448 ft | 16 kts | 242° |
| 2026-04-23 20:31 | 51.43132 | 12.23642 | 448 ft | 19 kts | 234° |
| 2026-04-23 20:31 | 51.43075 | 12.23507 | 449 ft | 11 kts | 236° |
| 2026-04-23 20:32 | 51.43004 | 12.23436 | 448 ft | 12 kts | 188° |
| 2026-04-23 20:32 | 51.42934 | 12.23430 | 441 ft | 12 kts | 199° |
| 2026-04-23 20:32 | 51.42894 | 12.23306 | 438 ft | 14 kts | 265° |
| 2026-04-23 20:32 | 51.42886 | 12.23134 | 438 ft | 17 kts | 266° |
| 2026-04-23 20:33 | 51.42876 | 12.22924 | 432 ft | 20 kts | 265° |
| 2026-04-23 20:33 | 51.42865 | 12.22693 | 439 ft | 22 kts | 265° |
| 2026-04-23 20:33 | 51.42852 | 12.22434 | 443 ft | 25 kts | 266° |
| 2026-04-23 20:33 | 51.42841 | 12.22183 | 439 ft | 23 kts | 266° |
| 2026-04-23 20:34 | 51.42828 | 12.21906 | 428 ft | 27 kts | 265° |
| 2026-04-23 20:34 | 51.42813 | 12.21602 | 426 ft | 25 kts | 266° |
| 2026-04-23 20:34 | 51.42803 | 12.21373 | 429 ft | 13 kts | 266° |
| 2026-04-23 20:34 | 51.42787 | 12.21261 | 426 ft | 11 kts | 233° |
| 2026-04-23 20:35 | 51.42711 | 12.21208 | 430 ft | 14 kts | 194° |
| 2026-04-23 20:35 | 51.42607 | 12.21164 | 433 ft | 17 kts | 195° |
| 2026-04-23 20:35 | 51.42481 | 12.21108 | 433 ft | 20 kts | 196° |
| 2026-04-23 20:35 | 51.42334 | 12.21042 | 431 ft | 24 kts | 195° |
| 2026-04-23 20:36 | 51.42193 | 12.20983 | 422 ft | 20 kts | 194° |
| 2026-04-23 20:36 | 51.42071 | 12.20928 | 424 ft | 9 kts | 196° |
| 2026-04-23 20:36 | 51.42016 | 12.20928 | 423 ft | 8 kts | 154° |
| 2026-04-23 20:36 | 51.41980 | 12.21012 | 423 ft | 10 kts | 110° |
| 2026-04-23 20:37 | 51.41960 | 12.21132 | 428 ft | 12 kts | 104° |
| 2026-04-23 20:37 | 51.41937 | 12.21272 | 424 ft | 14 kts | 106° |
| 2026-04-23 20:37 | 51.41909 | 12.21429 | 432 ft | 15 kts | 105° |
| 2026-04-23 20:37 | 51.41883 | 12.21584 | 435 ft | 15 kts | 105° |
| 2026-04-23 20:38 | 51.41864 | 12.21692 | 431 ft | 6 kts | 105° |
| 2026-04-23 20:38 | 51.41864 | 12.21763 | 436 ft | 5 kts | 52° |
| 2026-04-23 20:38 | 51.41896 | 12.21773 | 436 ft | 5 kts | 9° |
| 2026-04-23 20:38 | 51.41929 | 12.21786 | 429 ft | 0 kts | 14° |